sensor_id;sensor_type;location;lat;lon;timestamp;P1;durP1;ratioP1;P2;durP2;ratioP2
29812;SDS011;16707;48.106;11.548;2023-06-26T00:01:35;8.70;;;6.97;;
29812;SDS011;16707;48.106;11.548;2023-06-26T00:04:11;12.73;;;7.28;;
29812;SDS011;16707;48.106;11.548;2023-06-26T00:06:42;10.52;;;7.38;;
29812;SDS011;16707;48.106;11.548;2023-06-26T00:09:21;9.60;;;6.97;;
29812;SDS011;16707;48.106;11.548;2023-06-26T00:11:48;9.73;;;6.75;;
29812;SDS011;16707;48.106;11.548;2023-06-26T00:14:22;11.15;;;7.35;;
29812;SDS011;16707;48.106;11.548;2023-06-26T00:16:50;9.73;;;6.90;;
29812;SDS011;16707;48.106;11.548;2023-06-26T00:19:23;9.35;;;7.28;;
29812;SDS011;16707;48.106;11.548;2023-06-26T00:21:53;9.98;;;7.18;;
29812;SDS011;16707;48.106;11.548;2023-06-26T00:24:23;7.68;;;6.13;;
29812;SDS011;16707;48.106;11.548;2023-06-26T00:26:50;8.77;;;6.72;;
29812;SDS011;16707;48.106;11.548;2023-06-26T00:29:17;11.98;;;7.13;;
29812;SDS011;16707;48.106;11.548;2023-06-26T00:31:47;8.60;;;6.45;;
29812;SDS011;16707;48.106;11.548;2023-06-26T00:34:19;8.50;;;6.68;;
29812;SDS011;16707;48.106;11.548;2023-06-26T00:36:52;9.27;;;6.75;;
29812;SDS011;16707;48.106;11.548;2023-06-26T00:39:32;9.43;;;7.03;;
29812;SDS011;16707;48.106;11.548;2023-06-26T00:42:02;9.27;;;6.50;;
29812;SDS011;16707;48.106;11.548;2023-06-26T00:44:30;11.30;;;6.78;;
29812;SDS011;16707;48.106;11.548;2023-06-26T00:47:02;8.68;;;6.88;;
29812;SDS011;16707;48.106;11.548;2023-06-26T00:49:43;8.65;;;5.97;;
29812;SDS011;16707;48.106;11.548;2023-06-26T00:52:11;8.95;;;6.65;;
29812;SDS011;16707;48.106;11.548;2023-06-26T00:54:38;8.88;;;6.65;;
29812;SDS011;16707;48.106;11.548;2023-06-26T00:57:09;8.85;;;6.63;;
29812;SDS011;16707;48.106;11.548;2023-06-26T00:59:36;8.48;;;6.68;;
29812;SDS011;16707;48.106;11.548;2023-06-26T01:02:13;10.30;;;6.65;;
29812;SDS011;16707;48.106;11.548;2023-06-26T01:04:46;8.63;;;6.40;;
29812;SDS011;16707;48.106;11.548;2023-06-26T01:07:17;10.20;;;6.70;;
29812;SDS011;16707;48.106;11.548;2023-06-26T01:10:01;9.30;;;7.07;;
29812;SDS011;16707;48.106;11.548;2023-06-26T01:12:39;10.48;;;6.82;;
29812;SDS011;16707;48.106;11.548;2023-06-26T01:15:15;8.82;;;6.53;;
29812;SDS011;16707;48.106;11.548;2023-06-26T01:17:52;9.98;;;6.10;;
29812;SDS011;16707;48.106;11.548;2023-06-26T01:20:25;9.32;;;6.38;;
29812;SDS011;16707;48.106;11.548;2023-06-26T01:22:56;8.75;;;6.43;;
29812;SDS011;16707;48.106;11.548;2023-06-26T01:25:35;9.63;;;6.07;;
29812;SDS011;16707;48.106;11.548;2023-06-26T01:28:12;9.23;;;6.00;;
29812;SDS011;16707;48.106;11.548;2023-06-26T01:30:45;7.63;;;5.93;;
29812;SDS011;16707;48.106;11.548;2023-06-26T01:33:22;10.32;;;6.90;;
29812;SDS011;16707;48.106;11.548;2023-06-26T01:35:55;8.13;;;6.50;;
29812;SDS011;16707;48.106;11.548;2023-06-26T01:38:25;8.55;;;5.82;;
29812;SDS011;16707;48.106;11.548;2023-06-26T01:40:54;9.43;;;6.25;;
29812;SDS011;16707;48.106;11.548;2023-06-26T01:43:24;9.80;;;6.28;;
29812;SDS011;16707;48.106;11.548;2023-06-26T01:45:57;7.75;;;5.72;;
29812;SDS011;16707;48.106;11.548;2023-06-26T01:48:29;9.00;;;5.78;;
29812;SDS011;16707;48.106;11.548;2023-06-26T01:50:59;7.93;;;6.10;;
29812;SDS011;16707;48.106;11.548;2023-06-26T01:53:30;9.27;;;6.50;;
29812;SDS011;16707;48.106;11.548;2023-06-26T01:56:05;9.02;;;6.20;;
29812;SDS011;16707;48.106;11.548;2023-06-26T01:58:38;9.63;;;6.40;;
29812;SDS011;16707;48.106;11.548;2023-06-26T02:01:10;9.45;;;6.13;;
29812;SDS011;16707;48.106;11.548;2023-06-26T02:03:37;8.25;;;6.65;;
29812;SDS011;16707;48.106;11.548;2023-06-26T02:06:04;7.88;;;6.30;;
29812;SDS011;16707;48.106;11.548;2023-06-26T02:08:31;7.13;;;5.25;;
29812;SDS011;16707;48.106;11.548;2023-06-26T02:10:58;7.82;;;6.20;;
29812;SDS011;16707;48.106;11.548;2023-06-26T02:13:25;8.63;;;6.32;;
29812;SDS011;16707;48.106;11.548;2023-06-26T02:15:54;8.60;;;6.15;;
29812;SDS011;16707;48.106;11.548;2023-06-26T02:18:21;8.35;;;6.03;;
29812;SDS011;16707;48.106;11.548;2023-06-26T02:20:49;10.30;;;6.10;;
29812;SDS011;16707;48.106;11.548;2023-06-26T02:23:16;10.32;;;6.70;;
29812;SDS011;16707;48.106;11.548;2023-06-26T02:25:43;8.57;;;6.00;;
29812;SDS011;16707;48.106;11.548;2023-06-26T02:28:10;8.50;;;6.18;;
29812;SDS011;16707;48.106;11.548;2023-06-26T02:30:37;8.48;;;6.20;;
29812;SDS011;16707;48.106;11.548;2023-06-26T02:33:05;8.35;;;6.30;;
29812;SDS011;16707;48.106;11.548;2023-06-26T02:35:33;8.80;;;6.47;;
29812;SDS011;16707;48.106;11.548;2023-06-26T02:38:00;8.45;;;5.82;;
29812;SDS011;16707;48.106;11.548;2023-06-26T02:40:27;10.88;;;6.38;;
29812;SDS011;16707;48.106;11.548;2023-06-26T02:42:54;9.80;;;6.22;;
29812;SDS011;16707;48.106;11.548;2023-06-26T02:45:21;8.13;;;6.57;;
29812;SDS011;16707;48.106;11.548;2023-06-26T02:47:48;8.27;;;5.78;;
29812;SDS011;16707;48.106;11.548;2023-06-26T02:50:16;10.38;;;6.68;;
29812;SDS011;16707;48.106;11.548;2023-06-26T02:52:43;8.57;;;6.50;;
29812;SDS011;16707;48.106;11.548;2023-06-26T02:55:13;8.23;;;5.47;;
29812;SDS011;16707;48.106;11.548;2023-06-26T02:57:40;9.18;;;5.78;;
29812;SDS011;16707;48.106;11.548;2023-06-26T03:00:07;9.18;;;6.00;;
29812;SDS011;16707;48.106;11.548;2023-06-26T03:02:36;10.65;;;6.50;;
29812;SDS011;16707;48.106;11.548;2023-06-26T03:05:03;7.75;;;6.15;;
29812;SDS011;16707;48.106;11.548;2023-06-26T03:07:32;9.02;;;6.38;;
29812;SDS011;16707;48.106;11.548;2023-06-26T03:09:59;8.10;;;5.72;;
29812;SDS011;16707;48.106;11.548;2023-06-26T03:12:26;7.55;;;6.00;;
29812;SDS011;16707;48.106;11.548;2023-06-26T03:14:54;8.23;;;5.63;;
29812;SDS011;16707;48.106;11.548;2023-06-26T03:17:20;6.93;;;5.85;;
29812;SDS011;16707;48.106;11.548;2023-06-26T03:19:47;8.98;;;6.22;;
29812;SDS011;16707;48.106;11.548;2023-06-26T03:22:14;9.85;;;6.03;;
29812;SDS011;16707;48.106;11.548;2023-06-26T03:24:43;8.52;;;6.40;;
29812;SDS011;16707;48.106;11.548;2023-06-26T03:27:10;8.82;;;5.60;;
29812;SDS011;16707;48.106;11.548;2023-06-26T03:29:38;9.15;;;5.60;;
29812;SDS011;16707;48.106;11.548;2023-06-26T03:32:05;7.13;;;5.60;;
29812;SDS011;16707;48.106;11.548;2023-06-26T03:34:33;7.38;;;5.57;;
29812;SDS011;16707;48.106;11.548;2023-06-26T03:37:00;8.48;;;6.07;;
29812;SDS011;16707;48.106;11.548;2023-06-26T03:39:28;9.77;;;5.90;;
29812;SDS011;16707;48.106;11.548;2023-06-26T03:41:56;10.20;;;6.18;;
29812;SDS011;16707;48.106;11.548;2023-06-26T03:44:25;7.85;;;5.95;;
29812;SDS011;16707;48.106;11.548;2023-06-26T03:46:53;8.75;;;5.90;;
29812;SDS011;16707;48.106;11.548;2023-06-26T03:49:21;7.80;;;6.07;;
29812;SDS011;16707;48.106;11.548;2023-06-26T03:51:48;9.80;;;5.90;;
29812;SDS011;16707;48.106;11.548;2023-06-26T03:54:15;9.85;;;6.47;;
29812;SDS011;16707;48.106;11.548;2023-06-26T03:56:42;8.13;;;5.80;;
29812;SDS011;16707;48.106;11.548;2023-06-26T03:59:11;6.75;;;5.55;;
29812;SDS011;16707;48.106;11.548;2023-06-26T04:01:37;9.10;;;5.65;;
29812;SDS011;16707;48.106;11.548;2023-06-26T04:04:04;7.82;;;6.00;;
29812;SDS011;16707;48.106;11.548;2023-06-26T04:06:32;7.88;;;5.65;;
29812;SDS011;16707;48.106;11.548;2023-06-26T04:08:59;9.18;;;5.97;;
29812;SDS011;16707;48.106;11.548;2023-06-26T04:11:28;8.07;;;5.82;;
29812;SDS011;16707;48.106;11.548;2023-06-26T04:13:56;7.22;;;5.93;;
29812;SDS011;16707;48.106;11.548;2023-06-26T04:16:25;8.43;;;6.15;;
29812;SDS011;16707;48.106;11.548;2023-06-26T04:18:52;7.38;;;5.20;;
29812;SDS011;16707;48.106;11.548;2023-06-26T04:21:21;7.32;;;5.38;;
29812;SDS011;16707;48.106;11.548;2023-06-26T04:23:50;7.55;;;5.75;;
29812;SDS011;16707;48.106;11.548;2023-06-26T04:26:17;7.65;;;6.00;;
29812;SDS011;16707;48.106;11.548;2023-06-26T04:28:44;8.32;;;6.10;;
29812;SDS011;16707;48.106;11.548;2023-06-26T04:31:11;9.55;;;6.13;;
29812;SDS011;16707;48.106;11.548;2023-06-26T04:33:40;9.35;;;5.85;;
29812;SDS011;16707;48.106;11.548;2023-06-26T04:36:07;10.13;;;5.97;;
29812;SDS011;16707;48.106;11.548;2023-06-26T04:38:34;9.52;;;6.60;;
29812;SDS011;16707;48.106;11.548;2023-06-26T04:41:01;7.97;;;5.70;;
29812;SDS011;16707;48.106;11.548;2023-06-26T04:43:29;8.73;;;5.68;;
29812;SDS011;16707;48.106;11.548;2023-06-26T04:45:56;8.10;;;5.57;;
29812;SDS011;16707;48.106;11.548;2023-06-26T04:48:23;9.20;;;5.70;;
29812;SDS011;16707;48.106;11.548;2023-06-26T04:50:53;7.20;;;5.50;;
29812;SDS011;16707;48.106;11.548;2023-06-26T04:53:21;9.07;;;5.78;;
29812;SDS011;16707;48.106;11.548;2023-06-26T04:55:49;7.07;;;5.35;;
29812;SDS011;16707;48.106;11.548;2023-06-26T04:58:16;7.95;;;5.80;;
29812;SDS011;16707;48.106;11.548;2023-06-26T05:00:43;9.80;;;5.60;;
29812;SDS011;16707;48.106;11.548;2023-06-26T05:03:10;8.38;;;6.20;;
29812;SDS011;16707;48.106;11.548;2023-06-26T05:05:42;6.97;;;5.90;;
29812;SDS011;16707;48.106;11.548;2023-06-26T05:08:17;7.50;;;5.70;;
29812;SDS011;16707;48.106;11.548;2023-06-26T05:10:46;8.25;;;6.00;;
29812;SDS011;16707;48.106;11.548;2023-06-26T05:13:14;7.25;;;5.20;;
29812;SDS011;16707;48.106;11.548;2023-06-26T05:15:42;6.70;;;5.20;;
29812;SDS011;16707;48.106;11.548;2023-06-26T05:18:10;8.75;;;5.75;;
29812;SDS011;16707;48.106;11.548;2023-06-26T05:20:37;6.03;;;5.32;;
29812;SDS011;16707;48.106;11.548;2023-06-26T05:23:05;7.00;;;5.72;;
29812;SDS011;16707;48.106;11.548;2023-06-26T05:25:34;8.07;;;5.63;;
29812;SDS011;16707;48.106;11.548;2023-06-26T05:28:01;8.02;;;5.50;;
29812;SDS011;16707;48.106;11.548;2023-06-26T05:30:30;6.85;;;6.05;;
29812;SDS011;16707;48.106;11.548;2023-06-26T05:33:00;7.55;;;6.13;;
29812;SDS011;16707;48.106;11.548;2023-06-26T05:35:28;7.07;;;6.03;;
29812;SDS011;16707;48.106;11.548;2023-06-26T05:37:57;10.48;;;6.18;;
29812;SDS011;16707;48.106;11.548;2023-06-26T05:40:25;9.68;;;6.05;;
29812;SDS011;16707;48.106;11.548;2023-06-26T05:42:54;8.38;;;6.20;;
29812;SDS011;16707;48.106;11.548;2023-06-26T05:45:21;6.47;;;5.55;;
29812;SDS011;16707;48.106;11.548;2023-06-26T05:47:49;9.57;;;6.25;;
29812;SDS011;16707;48.106;11.548;2023-06-26T05:50:17;8.75;;;6.22;;
29812;SDS011;16707;48.106;11.548;2023-06-26T05:52:45;7.68;;;5.95;;
29812;SDS011;16707;48.106;11.548;2023-06-26T05:55:13;6.88;;;5.90;;
29812;SDS011;16707;48.106;11.548;2023-06-26T05:57:41;6.90;;;5.97;;
29812;SDS011;16707;48.106;11.548;2023-06-26T06:00:11;9.60;;;6.60;;
29812;SDS011;16707;48.106;11.548;2023-06-26T06:02:40;8.02;;;5.70;;
29812;SDS011;16707;48.106;11.548;2023-06-26T06:05:08;8.35;;;6.55;;
29812;SDS011;16707;48.106;11.548;2023-06-26T06:07:35;7.53;;;5.97;;
29812;SDS011;16707;48.106;11.548;2023-06-26T06:10:03;7.72;;;5.90;;
29812;SDS011;16707;48.106;11.548;2023-06-26T06:12:31;7.25;;;6.15;;
29812;SDS011;16707;48.106;11.548;2023-06-26T06:14:58;6.22;;;5.63;;
29812;SDS011;16707;48.106;11.548;2023-06-26T06:17:26;8.20;;;6.30;;
29812;SDS011;16707;48.106;11.548;2023-06-26T06:19:53;9.48;;;7.10;;
29812;SDS011;16707;48.106;11.548;2023-06-26T06:22:20;7.30;;;6.00;;
29812;SDS011;16707;48.106;11.548;2023-06-26T06:24:48;6.45;;;5.82;;
29812;SDS011;16707;48.106;11.548;2023-06-26T06:27:16;6.30;;;5.70;;
29812;SDS011;16707;48.106;11.548;2023-06-26T06:29:43;7.47;;;5.60;;
29812;SDS011;16707;48.106;11.548;2023-06-26T06:32:11;7.80;;;5.68;;
29812;SDS011;16707;48.106;11.548;2023-06-26T06:34:39;7.07;;;5.53;;
29812;SDS011;16707;48.106;11.548;2023-06-26T06:37:06;6.88;;;5.25;;
29812;SDS011;16707;48.106;11.548;2023-06-26T06:39:33;6.20;;;5.50;;
29812;SDS011;16707;48.106;11.548;2023-06-26T06:42:00;8.32;;;5.70;;
29812;SDS011;16707;48.106;11.548;2023-06-26T06:44:27;6.28;;;5.60;;
29812;SDS011;16707;48.106;11.548;2023-06-26T06:46:55;5.72;;;5.22;;
29812;SDS011;16707;48.106;11.548;2023-06-26T06:49:22;6.95;;;5.68;;
29812;SDS011;16707;48.106;11.548;2023-06-26T06:51:51;6.00;;;5.30;;
29812;SDS011;16707;48.106;11.548;2023-06-26T06:54:18;6.25;;;4.95;;
29812;SDS011;16707;48.106;11.548;2023-06-26T06:56:45;5.38;;;4.63;;
29812;SDS011;16707;48.106;11.548;2023-06-26T06:59:12;5.30;;;4.80;;
29812;SDS011;16707;48.106;11.548;2023-06-26T07:01:39;5.32;;;4.82;;
29812;SDS011;16707;48.106;11.548;2023-06-26T07:04:07;5.95;;;4.95;;
29812;SDS011;16707;48.106;11.548;2023-06-26T07:06:34;8.05;;;5.57;;
29812;SDS011;16707;48.106;11.548;2023-06-26T07:09:03;5.68;;;4.97;;
29812;SDS011;16707;48.106;11.548;2023-06-26T07:11:31;5.57;;;5.07;;
29812;SDS011;16707;48.106;11.548;2023-06-26T07:13:58;5.30;;;4.80;;
29812;SDS011;16707;48.106;11.548;2023-06-26T07:16:25;5.50;;;5.00;;
29812;SDS011;16707;48.106;11.548;2023-06-26T07:18:53;6.75;;;5.45;;
29812;SDS011;16707;48.106;11.548;2023-06-26T07:21:20;5.72;;;5.15;;
29812;SDS011;16707;48.106;11.548;2023-06-26T07:23:47;5.95;;;5.28;;
29812;SDS011;16707;48.106;11.548;2023-06-26T07:26:16;6.45;;;5.85;;
29812;SDS011;16707;48.106;11.548;2023-06-26T07:28:43;5.20;;;4.60;;
29812;SDS011;16707;48.106;11.548;2023-06-26T07:31:10;5.70;;;5.10;;
29812;SDS011;16707;48.106;11.548;2023-06-26T07:33:37;6.65;;;4.95;;
29812;SDS011;16707;48.106;11.548;2023-06-26T07:36:04;5.95;;;5.45;;
29812;SDS011;16707;48.106;11.548;2023-06-26T07:38:31;6.20;;;4.85;;
29812;SDS011;16707;48.106;11.548;2023-06-26T07:40:58;6.00;;;4.90;;
29812;SDS011;16707;48.106;11.548;2023-06-26T07:43:27;5.50;;;5.00;;
29812;SDS011;16707;48.106;11.548;2023-06-26T07:45:54;6.40;;;5.47;;
29812;SDS011;16707;48.106;11.548;2023-06-26T07:48:23;6.50;;;5.80;;
29812;SDS011;16707;48.106;11.548;2023-06-26T07:50:50;6.03;;;5.30;;
29812;SDS011;16707;48.106;11.548;2023-06-26T07:53:18;6.60;;;5.90;;
29812;SDS011;16707;48.106;11.548;2023-06-26T07:55:45;6.03;;;5.35;;
29812;SDS011;16707;48.106;11.548;2023-06-26T07:58:12;7.13;;;5.95;;
29812;SDS011;16707;48.106;11.548;2023-06-26T08:00:41;8.05;;;5.20;;
29812;SDS011;16707;48.106;11.548;2023-06-26T08:03:08;7.15;;;5.57;;
29812;SDS011;16707;48.106;11.548;2023-06-26T08:05:35;7.68;;;5.70;;
29812;SDS011;16707;48.106;11.548;2023-06-26T08:08:02;7.25;;;5.57;;
29812;SDS011;16707;48.106;11.548;2023-06-26T08:10:29;7.50;;;5.35;;
29812;SDS011;16707;48.106;11.548;2023-06-26T08:12:57;7.43;;;5.88;;
29812;SDS011;16707;48.106;11.548;2023-06-26T08:15:24;6.55;;;5.45;;
29812;SDS011;16707;48.106;11.548;2023-06-26T08:17:52;5.93;;;5.32;;
29812;SDS011;16707;48.106;11.548;2023-06-26T08:20:20;6.30;;;5.70;;
29812;SDS011;16707;48.106;11.548;2023-06-26T08:22:47;6.88;;;5.68;;
29812;SDS011;16707;48.106;11.548;2023-06-26T08:25:16;6.38;;;5.68;;
29812;SDS011;16707;48.106;11.548;2023-06-26T08:27:43;6.90;;;5.35;;
29812;SDS011;16707;48.106;11.548;2023-06-26T08:30:10;6.63;;;5.60;;
29812;SDS011;16707;48.106;11.548;2023-06-26T08:32:38;7.43;;;5.05;;
29812;SDS011;16707;48.106;11.548;2023-06-26T08:35:07;7.18;;;6.28;;
29812;SDS011;16707;48.106;11.548;2023-06-26T08:37:35;6.80;;;6.07;;
29812;SDS011;16707;48.106;11.548;2023-06-26T08:40:02;7.70;;;5.60;;
29812;SDS011;16707;48.106;11.548;2023-06-26T08:42:31;9.02;;;5.93;;
29812;SDS011;16707;48.106;11.548;2023-06-26T08:44:57;7.53;;;5.68;;
29812;SDS011;16707;48.106;11.548;2023-06-26T08:47:25;6.47;;;5.68;;
29812;SDS011;16707;48.106;11.548;2023-06-26T08:49:56;5.43;;;4.82;;
29812;SDS011;16707;48.106;11.548;2023-06-26T08:52:35;7.28;;;6.15;;
29812;SDS011;16707;48.106;11.548;2023-06-26T08:55:09;7.63;;;4.97;;
29812;SDS011;16707;48.106;11.548;2023-06-26T08:57:37;6.05;;;5.38;;
29812;SDS011;16707;48.106;11.548;2023-06-26T09:00:05;6.07;;;5.07;;
29812;SDS011;16707;48.106;11.548;2023-06-26T09:02:35;6.63;;;5.15;;
29812;SDS011;16707;48.106;11.548;2023-06-26T09:05:02;6.22;;;5.53;;
29812;SDS011;16707;48.106;11.548;2023-06-26T09:07:30;5.97;;;5.35;;
29812;SDS011;16707;48.106;11.548;2023-06-26T09:09:58;6.55;;;5.05;;
29812;SDS011;16707;48.106;11.548;2023-06-26T09:12:26;5.55;;;5.00;;
29812;SDS011;16707;48.106;11.548;2023-06-26T09:14:54;6.10;;;5.15;;
29812;SDS011;16707;48.106;11.548;2023-06-26T09:17:24;5.47;;;4.93;;
29812;SDS011;16707;48.106;11.548;2023-06-26T09:19:52;5.82;;;5.20;;
29812;SDS011;16707;48.106;11.548;2023-06-26T09:22:19;5.93;;;5.10;;
29812;SDS011;16707;48.106;11.548;2023-06-26T09:24:46;6.65;;;5.00;;
29812;SDS011;16707;48.106;11.548;2023-06-26T09:27:15;6.38;;;5.30;;
29812;SDS011;16707;48.106;11.548;2023-06-26T09:29:43;6.53;;;4.65;;
29812;SDS011;16707;48.106;11.548;2023-06-26T09:32:12;5.97;;;5.30;;
29812;SDS011;16707;48.106;11.548;2023-06-26T09:34:41;6.78;;;5.15;;
29812;SDS011;16707;48.106;11.548;2023-06-26T09:37:11;4.53;;;4.10;;
29812;SDS011;16707;48.106;11.548;2023-06-26T09:39:39;4.88;;;4.38;;
29812;SDS011;16707;48.106;11.548;2023-06-26T09:42:06;4.68;;;4.18;;
29812;SDS011;16707;48.106;11.548;2023-06-26T09:44:36;4.72;;;4.00;;
29812;SDS011;16707;48.106;11.548;2023-06-26T09:47:03;4.70;;;4.10;;
29812;SDS011;16707;48.106;11.548;2023-06-26T09:49:30;4.80;;;4.30;;
29812;SDS011;16707;48.106;11.548;2023-06-26T09:51:59;4.55;;;3.88;;
29812;SDS011;16707;48.106;11.548;2023-06-26T09:54:28;5.88;;;4.25;;
29812;SDS011;16707;48.106;11.548;2023-06-26T09:57:06;5.40;;;4.22;;
29812;SDS011;16707;48.106;11.548;2023-06-26T09:59:35;5.40;;;3.70;;
29812;SDS011;16707;48.106;11.548;2023-06-26T10:02:03;8.68;;;4.07;;
29812;SDS011;16707;48.106;11.548;2023-06-26T10:04:32;4.30;;;3.90;;
29812;SDS011;16707;48.106;11.548;2023-06-26T10:07:01;4.82;;;4.25;;
29812;SDS011;16707;48.106;11.548;2023-06-26T10:09:31;4.78;;;3.80;;
29812;SDS011;16707;48.106;11.548;2023-06-26T10:12:01;5.07;;;4.07;;
29812;SDS011;16707;48.106;11.548;2023-06-26T10:14:31;4.65;;;3.85;;
29812;SDS011;16707;48.106;11.548;2023-06-26T10:17:03;6.13;;;5.35;;
29812;SDS011;16707;48.106;11.548;2023-06-26T10:19:37;5.00;;;4.20;;
29812;SDS011;16707;48.106;11.548;2023-06-26T10:22:06;5.32;;;4.53;;
29812;SDS011;16707;48.106;11.548;2023-06-26T10:24:35;5.60;;;3.75;;
29812;SDS011;16707;48.106;11.548;2023-06-26T10:27:06;4.10;;;3.70;;
29812;SDS011;16707;48.106;11.548;2023-06-26T10:29:39;4.65;;;3.83;;
29812;SDS011;16707;48.106;11.548;2023-06-26T10:32:09;4.28;;;3.88;;
29812;SDS011;16707;48.106;11.548;2023-06-26T10:34:38;4.50;;;3.88;;
29812;SDS011;16707;48.106;11.548;2023-06-26T10:37:06;7.57;;;4.10;;
29812;SDS011;16707;48.106;11.548;2023-06-26T10:42:34;4.00;;;3.60;;
29812;SDS011;16707;48.106;11.548;2023-06-26T10:45:09;4.30;;;3.83;;
29812;SDS011;16707;48.106;11.548;2023-06-26T10:47:40;4.72;;;3.95;;
29812;SDS011;16707;48.106;11.548;2023-06-26T10:50:16;4.70;;;4.20;;
29812;SDS011;16707;48.106;11.548;2023-06-26T10:52:45;4.03;;;3.63;;
29812;SDS011;16707;48.106;11.548;2023-06-26T10:55:13;4.40;;;3.72;;
29812;SDS011;16707;48.106;11.548;2023-06-26T10:57:44;5.22;;;4.07;;
29812;SDS011;16707;48.106;11.548;2023-06-26T11:00:16;4.70;;;4.05;;
29812;SDS011;16707;48.106;11.548;2023-06-26T11:02:49;4.50;;;4.00;;
29812;SDS011;16707;48.106;11.548;2023-06-26T11:08:04;4.55;;;3.83;;
29812;SDS011;16707;48.106;11.548;2023-06-26T11:10:48;4.75;;;4.10;;
29812;SDS011;16707;48.106;11.548;2023-06-26T11:13:17;5.80;;;4.20;;
29812;SDS011;16707;48.106;11.548;2023-06-26T11:15:47;4.20;;;3.80;;
29812;SDS011;16707;48.106;11.548;2023-06-26T11:18:16;4.93;;;4.30;;
29812;SDS011;16707;48.106;11.548;2023-06-26T11:20:43;4.72;;;4.25;;
29812;SDS011;16707;48.106;11.548;2023-06-26T11:23:10;4.80;;;4.30;;
29812;SDS011;16707;48.106;11.548;2023-06-26T11:25:38;5.45;;;4.00;;
29812;SDS011;16707;48.106;11.548;2023-06-26T11:28:05;6.97;;;4.38;;
29812;SDS011;16707;48.106;11.548;2023-06-26T11:30:36;7.68;;;4.57;;
29812;SDS011;16707;48.106;11.548;2023-06-26T11:33:06;4.68;;;4.00;;
29812;SDS011;16707;48.106;11.548;2023-06-26T11:35:35;5.00;;;4.22;;
29812;SDS011;16707;48.106;11.548;2023-06-26T11:38:03;4.60;;;4.20;;
29812;SDS011;16707;48.106;11.548;2023-06-26T11:40:31;5.60;;;4.97;;
29812;SDS011;16707;48.106;11.548;2023-06-26T11:43:00;5.68;;;4.40;;
29812;SDS011;16707;48.106;11.548;2023-06-26T11:45:28;5.40;;;4.53;;
29812;SDS011;16707;48.106;11.548;2023-06-26T11:47:56;5.30;;;4.00;;
29812;SDS011;16707;48.106;11.548;2023-06-26T11:50:25;5.30;;;4.80;;
29812;SDS011;16707;48.106;11.548;2023-06-26T11:52:53;5.03;;;4.57;;
29812;SDS011;16707;48.106;11.548;2023-06-26T11:55:21;5.32;;;4.75;;
29812;SDS011;16707;48.106;11.548;2023-06-26T11:57:49;5.00;;;4.53;;
29812;SDS011;16707;48.106;11.548;2023-06-26T12:00:19;6.65;;;4.97;;
29812;SDS011;16707;48.106;11.548;2023-06-26T12:02:47;5.60;;;4.82;;
29812;SDS011;16707;48.106;11.548;2023-06-26T12:05:14;5.13;;;4.63;;
29812;SDS011;16707;48.106;11.548;2023-06-26T12:07:44;4.45;;;4.05;;
29812;SDS011;16707;48.106;11.548;2023-06-26T12:10:14;7.20;;;5.68;;
29812;SDS011;16707;48.106;11.548;2023-06-26T12:12:42;6.13;;;5.10;;
29812;SDS011;16707;48.106;11.548;2023-06-26T12:15:14;5.80;;;5.20;;
29812;SDS011;16707;48.106;11.548;2023-06-26T12:17:42;5.63;;;4.50;;
29812;SDS011;16707;48.106;11.548;2023-06-26T12:20:18;5.30;;;4.70;;
29812;SDS011;16707;48.106;11.548;2023-06-26T12:22:48;5.43;;;4.40;;
29812;SDS011;16707;48.106;11.548;2023-06-26T12:25:16;5.13;;;4.63;;
29812;SDS011;16707;48.106;11.548;2023-06-26T12:27:48;4.97;;;4.43;;
29812;SDS011;16707;48.106;11.548;2023-06-26T12:30:16;7.38;;;4.97;;
29812;SDS011;16707;48.106;11.548;2023-06-26T12:32:46;5.68;;;5.05;;
29812;SDS011;16707;48.106;11.548;2023-06-26T12:35:13;5.78;;;5.07;;
29812;SDS011;16707;48.106;11.548;2023-06-26T12:37:41;5.28;;;4.72;;
29812;SDS011;16707;48.106;11.548;2023-06-26T12:40:17;5.30;;;4.80;;
29812;SDS011;16707;48.106;11.548;2023-06-26T12:42:47;6.13;;;5.00;;
29812;SDS011;16707;48.106;11.548;2023-06-26T12:45:14;6.93;;;4.90;;
29812;SDS011;16707;48.106;11.548;2023-06-26T12:47:42;5.10;;;4.38;;
29812;SDS011;16707;48.106;11.548;2023-06-26T12:50:09;7.18;;;5.20;;
29812;SDS011;16707;48.106;11.548;2023-06-26T12:52:36;6.32;;;5.03;;
29812;SDS011;16707;48.106;11.548;2023-06-26T12:55:03;6.28;;;5.68;;
29812;SDS011;16707;48.106;11.548;2023-06-26T12:57:33;5.25;;;4.75;;
29812;SDS011;16707;48.106;11.548;2023-06-26T13:00:00;5.32;;;4.70;;
29812;SDS011;16707;48.106;11.548;2023-06-26T13:02:28;6.95;;;4.80;;
29812;SDS011;16707;48.106;11.548;2023-06-26T13:04:55;6.78;;;4.95;;
29812;SDS011;16707;48.106;11.548;2023-06-26T13:07:22;5.28;;;4.68;;
29812;SDS011;16707;48.106;11.548;2023-06-26T13:09:50;6.47;;;4.63;;
29812;SDS011;16707;48.106;11.548;2023-06-26T13:12:17;5.53;;;4.50;;
29812;SDS011;16707;48.106;11.548;2023-06-26T13:14:46;4.97;;;4.47;;
29812;SDS011;16707;48.106;11.548;2023-06-26T13:17:13;5.63;;;5.07;;
29812;SDS011;16707;48.106;11.548;2023-06-26T13:19:40;7.63;;;5.20;;
29812;SDS011;16707;48.106;11.548;2023-06-26T13:22:08;6.60;;;5.20;;
29812;SDS011;16707;48.106;11.548;2023-06-26T13:24:35;5.55;;;4.72;;
29812;SDS011;16707;48.106;11.548;2023-06-26T13:27:02;6.10;;;5.50;;
29812;SDS011;16707;48.106;11.548;2023-06-26T13:29:31;6.15;;;5.25;;
29812;SDS011;16707;48.106;11.548;2023-06-26T13:32:00;6.25;;;5.38;;
29812;SDS011;16707;48.106;11.548;2023-06-26T13:34:27;7.57;;;5.78;;
29812;SDS011;16707;48.106;11.548;2023-06-26T13:36:55;6.93;;;5.70;;
29812;SDS011;16707;48.106;11.548;2023-06-26T13:39:24;6.18;;;5.07;;
29812;SDS011;16707;48.106;11.548;2023-06-26T13:41:51;5.82;;;5.18;;
29812;SDS011;16707;48.106;11.548;2023-06-26T13:44:18;7.55;;;5.95;;
29812;SDS011;16707;48.106;11.548;2023-06-26T13:46:45;6.22;;;5.22;;
29812;SDS011;16707;48.106;11.548;2023-06-26T13:49:14;6.07;;;5.20;;
29812;SDS011;16707;48.106;11.548;2023-06-26T13:51:41;6.97;;;5.72;;
29812;SDS011;16707;48.106;11.548;2023-06-26T13:54:11;5.88;;;5.28;;
29812;SDS011;16707;48.106;11.548;2023-06-26T13:56:39;5.05;;;4.55;;
29812;SDS011;16707;48.106;11.548;2023-06-26T13:59:06;6.50;;;5.13;;
29812;SDS011;16707;48.106;11.548;2023-06-26T14:01:33;6.28;;;4.97;;
29812;SDS011;16707;48.106;11.548;2023-06-26T14:04:00;6.50;;;5.65;;
29812;SDS011;16707;48.106;11.548;2023-06-26T14:06:28;6.85;;;5.63;;
29812;SDS011;16707;48.106;11.548;2023-06-26T14:08:57;6.05;;;5.28;;
29812;SDS011;16707;48.106;11.548;2023-06-26T14:11:24;5.93;;;5.15;;
29812;SDS011;16707;48.106;11.548;2023-06-26T14:13:52;7.00;;;5.57;;
29812;SDS011;16707;48.106;11.548;2023-06-26T14:16:19;5.80;;;5.20;;
29812;SDS011;16707;48.106;11.548;2023-06-26T14:18:46;6.45;;;5.72;;
29812;SDS011;16707;48.106;11.548;2023-06-26T14:21:13;6.28;;;5.47;;
29812;SDS011;16707;48.106;11.548;2023-06-26T14:23:42;6.07;;;5.30;;
29812;SDS011;16707;48.106;11.548;2023-06-26T14:26:09;6.03;;;5.03;;
29812;SDS011;16707;48.106;11.548;2023-06-26T14:28:36;6.57;;;5.82;;
29812;SDS011;16707;48.106;11.548;2023-06-26T14:31:04;6.03;;;5.43;;
29812;SDS011;16707;48.106;11.548;2023-06-26T14:33:31;7.10;;;5.68;;
29812;SDS011;16707;48.106;11.548;2023-06-26T14:35:58;5.85;;;5.35;;
29812;SDS011;16707;48.106;11.548;2023-06-26T14:38:25;5.65;;;5.10;;
29812;SDS011;16707;48.106;11.548;2023-06-26T14:40:54;5.88;;;5.28;;
29812;SDS011;16707;48.106;11.548;2023-06-26T14:43:21;5.75;;;5.05;;
29812;SDS011;16707;48.106;11.548;2023-06-26T14:45:48;5.57;;;5.07;;
29812;SDS011;16707;48.106;11.548;2023-06-26T14:48:16;6.70;;;5.13;;